sensor_id;sensor_type;location;lat;lon;timestamp;P1;durP1;ratioP1;P2;durP2;ratioP2
50647;SDS011;36617;52.002;6.034;2022-12-20T00:01:42;100.70;;;67.47;;
50647;SDS011;36617;52.002;6.034;2022-12-20T00:04:07;100.67;;;65.33;;
50647;SDS011;36617;52.002;6.034;2022-12-20T00:06:34;100.35;;;65.82;;
50647;SDS011;36617;52.002;6.034;2022-12-20T00:09:00;98.47;;;64.03;;
50647;SDS011;36617;52.002;6.034;2022-12-20T00:11:26;96.50;;;62.03;;
50647;SDS011;36617;52.002;6.034;2022-12-20T00:13:51;95.93;;;63.00;;
50647;SDS011;36617;52.002;6.034;2022-12-20T00:16:21;94.68;;;62.05;;
50647;SDS011;36617;52.002;6.034;2022-12-20T00:18:49;88.53;;;59.08;;
50647;SDS011;36617;52.002;6.034;2022-12-20T00:21:14;90.60;;;58.88;;
50647;SDS011;36617;52.002;6.034;2022-12-20T00:23:40;84.20;;;56.87;;
50647;SDS011;36617;52.002;6.034;2022-12-20T00:26:06;84.70;;;56.75;;
50647;SDS011;36617;52.002;6.034;2022-12-20T00:28:32;80.82;;;53.42;;
50647;SDS011;36617;52.002;6.034;2022-12-20T00:30:58;83.05;;;53.85;;
50647;SDS011;36617;52.002;6.034;2022-12-20T00:33:23;77.63;;;53.00;;
50647;SDS011;36617;52.002;6.034;2022-12-20T00:35:48;81.57;;;53.83;;
50647;SDS011;36617;52.002;6.034;2022-12-20T00:38:14;76.53;;;52.07;;
50647;SDS011;36617;52.002;6.034;2022-12-20T00:40:39;73.40;;;49.90;;
50647;SDS011;36617;52.002;6.034;2022-12-20T00:43:04;72.43;;;48.90;;
50647;SDS011;36617;52.002;6.034;2022-12-20T00:45:29;73.23;;;48.90;;
50647;SDS011;36617;52.002;6.034;2022-12-20T00:47:54;70.47;;;47.47;;
50647;SDS011;36617;52.002;6.034;2022-12-20T00:50:20;68.67;;;46.73;;
50647;SDS011;36617;52.002;6.034;2022-12-20T00:52:45;67.43;;;46.40;;
50647;SDS011;36617;52.002;6.034;2022-12-20T00:55:10;67.40;;;45.47;;
50647;SDS011;36617;52.002;6.034;2022-12-20T00:57:35;66.43;;;45.57;;
50647;SDS011;36617;52.002;6.034;2022-12-20T01:00:00;62.13;;;43.73;;
50647;SDS011;36617;52.002;6.034;2022-12-20T01:02:25;61.30;;;42.90;;
50647;SDS011;36617;52.002;6.034;2022-12-20T01:04:51;61.07;;;42.87;;
50647;SDS011;36617;52.002;6.034;2022-12-20T01:07:16;59.03;;;41.40;;
50647;SDS011;36617;52.002;6.034;2022-12-20T01:09:41;57.93;;;40.60;;
50647;SDS011;36617;52.002;6.034;2022-12-20T01:12:06;59.87;;;40.13;;
50647;SDS011;36617;52.002;6.034;2022-12-20T01:14:32;57.60;;;40.63;;
50647;SDS011;36617;52.002;6.034;2022-12-20T01:16:57;60.03;;;40.40;;
50647;SDS011;36617;52.002;6.034;2022-12-20T01:19:22;56.87;;;39.13;;
50647;SDS011;36617;52.002;6.034;2022-12-20T01:21:47;55.97;;;38.33;;
50647;SDS011;36617;52.002;6.034;2022-12-20T01:24:13;55.27;;;37.70;;
50647;SDS011;36617;52.002;6.034;2022-12-20T01:26:39;52.70;;;37.08;;
50647;SDS011;36617;52.002;6.034;2022-12-20T01:29:05;52.95;;;36.00;;
50647;SDS011;36617;52.002;6.034;2022-12-20T01:31:30;52.50;;;35.75;;
50647;SDS011;36617;52.002;6.034;2022-12-20T01:33:55;49.93;;;34.60;;
50647;SDS011;36617;52.002;6.034;2022-12-20T01:36:22;51.07;;;34.30;;
50647;SDS011;36617;52.002;6.034;2022-12-20T01:38:54;48.70;;;33.38;;
50647;SDS011;36617;52.002;6.034;2022-12-20T01:41:20;47.17;;;32.17;;
50647;SDS011;36617;52.002;6.034;2022-12-20T01:43:59;48.42;;;32.83;;
50647;SDS011;36617;52.002;6.034;2022-12-20T01:46:26;47.17;;;32.28;;
50647;SDS011;36617;52.002;6.034;2022-12-20T01:48:53;45.25;;;31.20;;
50647;SDS011;36617;52.002;6.034;2022-12-20T01:51:19;45.20;;;30.98;;
50647;SDS011;36617;52.002;6.034;2022-12-20T01:53:46;45.43;;;31.27;;
50647;SDS011;36617;52.002;6.034;2022-12-20T01:56:11;44.83;;;30.67;;
50647;SDS011;36617;52.002;6.034;2022-12-20T01:58:36;42.67;;;29.07;;
50647;SDS011;36617;52.002;6.034;2022-12-20T02:01:03;43.85;;;29.98;;
50647;SDS011;36617;52.002;6.034;2022-12-20T02:03:28;42.67;;;29.63;;
50647;SDS011;36617;52.002;6.034;2022-12-20T02:05:54;41.67;;;28.77;;
50647;SDS011;36617;52.002;6.034;2022-12-20T02:08:19;42.40;;;28.50;;
50647;SDS011;36617;52.002;6.034;2022-12-20T02:13:22;39.25;;;26.75;;
50647;SDS011;36617;52.002;6.034;2022-12-20T02:15:54;37.90;;;26.03;;
50647;SDS011;36617;52.002;6.034;2022-12-20T02:18:25;37.70;;;25.98;;
50647;SDS011;36617;52.002;6.034;2022-12-20T02:26:03;37.45;;;24.70;;
50647;SDS011;36617;52.002;6.034;2022-12-20T02:28:54;35.40;;;25.10;;
50647;SDS011;36617;52.002;6.034;2022-12-20T02:31:26;36.73;;;24.97;;
50647;SDS011;36617;52.002;6.034;2022-12-20T02:33:52;34.20;;;23.48;;
50647;SDS011;36617;52.002;6.034;2022-12-20T02:36:18;34.92;;;23.52;;
50647;SDS011;36617;52.002;6.034;2022-12-20T02:38:43;35.07;;;23.67;;
50647;SDS011;36617;52.002;6.034;2022-12-20T02:43:54;33.40;;;22.58;;
50647;SDS011;36617;52.002;6.034;2022-12-20T02:46:39;31.25;;;21.92;;
50647;SDS011;36617;52.002;6.034;2022-12-20T02:49:07;32.78;;;21.77;;
50647;SDS011;36617;52.002;6.034;2022-12-20T02:51:35;30.63;;;20.80;;
50647;SDS011;36617;52.002;6.034;2022-12-20T02:54:00;30.10;;;20.80;;
50647;SDS011;36617;52.002;6.034;2022-12-20T02:56:31;30.33;;;20.47;;
50647;SDS011;36617;52.002;6.034;2022-12-20T02:59:08;28.15;;;19.00;;
50647;SDS011;36617;52.002;6.034;2022-12-20T03:01:36;28.67;;;19.27;;
50647;SDS011;36617;52.002;6.034;2022-12-20T03:04:03;30.30;;;20.27;;
50647;SDS011;36617;52.002;6.034;2022-12-20T03:06:28;28.15;;;19.02;;
50647;SDS011;36617;52.002;6.034;2022-12-20T03:08:56;28.40;;;18.77;;
50647;SDS011;36617;52.002;6.034;2022-12-20T03:11:21;27.27;;;17.90;;
50647;SDS011;36617;52.002;6.034;2022-12-20T03:13:47;26.90;;;18.03;;
50647;SDS011;36617;52.002;6.034;2022-12-20T03:16:12;25.90;;;17.47;;
50647;SDS011;36617;52.002;6.034;2022-12-20T03:18:37;26.00;;;17.47;;
50647;SDS011;36617;52.002;6.034;2022-12-20T03:21:03;25.00;;;16.57;;
50647;SDS011;36617;52.002;6.034;2022-12-20T03:23:28;25.93;;;16.93;;
50647;SDS011;36617;52.002;6.034;2022-12-20T03:25:53;24.85;;;16.55;;
50647;SDS011;36617;52.002;6.034;2022-12-20T03:28:19;25.43;;;16.50;;
50647;SDS011;36617;52.002;6.034;2022-12-20T03:30:44;23.87;;;15.87;;
50647;SDS011;36617;52.002;6.034;2022-12-20T03:33:10;25.10;;;16.50;;
50647;SDS011;36617;52.002;6.034;2022-12-20T03:35:35;24.03;;;15.37;;
50647;SDS011;36617;52.002;6.034;2022-12-20T03:38:00;22.57;;;15.53;;
50647;SDS011;36617;52.002;6.034;2022-12-20T03:40:26;22.93;;;15.07;;
50647;SDS011;36617;52.002;6.034;2022-12-20T03:42:51;22.10;;;14.73;;
50647;SDS011;36617;52.002;6.034;2022-12-20T03:45:16;23.33;;;15.03;;
50647;SDS011;36617;52.002;6.034;2022-12-20T03:47:41;21.63;;;14.03;;
50647;SDS011;36617;52.002;6.034;2022-12-20T03:50:07;22.47;;;14.43;;
50647;SDS011;36617;52.002;6.034;2022-12-20T03:52:32;20.47;;;13.30;;
50647;SDS011;36617;52.002;6.034;2022-12-20T03:54:57;20.73;;;13.03;;
50647;SDS011;36617;52.002;6.034;2022-12-20T03:57:22;19.33;;;12.77;;
50647;SDS011;36617;52.002;6.034;2022-12-20T03:59:48;19.93;;;12.90;;
50647;SDS011;36617;52.002;6.034;2022-12-20T04:02:13;18.87;;;12.50;;
50647;SDS011;36617;52.002;6.034;2022-12-20T04:04:38;18.83;;;12.47;;
50647;SDS011;36617;52.002;6.034;2022-12-20T04:07:03;18.13;;;12.13;;
50647;SDS011;36617;52.002;6.034;2022-12-20T04:09:29;19.60;;;11.87;;
50647;SDS011;36617;52.002;6.034;2022-12-20T04:11:54;19.17;;;12.03;;
50647;SDS011;36617;52.002;6.034;2022-12-20T04:14:19;17.73;;;11.03;;
50647;SDS011;36617;52.002;6.034;2022-12-20T04:16:44;18.27;;;11.43;;
50647;SDS011;36617;52.002;6.034;2022-12-20T04:19:10;17.17;;;11.20;;
50647;SDS011;36617;52.002;6.034;2022-12-20T04:21:35;16.88;;;10.55;;
50647;SDS011;36617;52.002;6.034;2022-12-20T04:24:01;17.30;;;10.80;;
50647;SDS011;36617;52.002;6.034;2022-12-20T04:26:27;16.65;;;10.70;;
50647;SDS011;36617;52.002;6.034;2022-12-20T04:28:52;16.33;;;10.23;;
50647;SDS011;36617;52.002;6.034;2022-12-20T04:31:17;17.13;;;10.30;;
50647;SDS011;36617;52.002;6.034;2022-12-20T04:33:43;16.07;;;10.13;;
50647;SDS011;36617;52.002;6.034;2022-12-20T04:36:08;16.95;;;10.20;;
50647;SDS011;36617;52.002;6.034;2022-12-20T04:38:34;16.00;;;9.80;;
50647;SDS011;36617;52.002;6.034;2022-12-20T04:40:59;15.83;;;9.97;;
50647;SDS011;36617;52.002;6.034;2022-12-20T04:43:24;15.67;;;9.73;;
50647;SDS011;36617;52.002;6.034;2022-12-20T04:45:50;13.68;;;8.57;;
50647;SDS011;36617;52.002;6.034;2022-12-20T04:48:17;14.15;;;8.40;;
50647;SDS011;36617;52.002;6.034;2022-12-20T04:50:42;13.87;;;8.73;;
50647;SDS011;36617;52.002;6.034;2022-12-20T04:53:11;14.20;;;8.80;;
50647;SDS011;36617;52.002;6.034;2022-12-20T04:55:55;13.70;;;8.57;;
50647;SDS011;36617;52.002;6.034;2022-12-20T04:58:20;13.50;;;8.43;;
50647;SDS011;36617;52.002;6.034;2022-12-20T05:00:45;12.80;;;8.30;;
50647;SDS011;36617;52.002;6.034;2022-12-20T05:03:11;12.70;;;8.00;;
50647;SDS011;36617;52.002;6.034;2022-12-20T05:05:36;13.93;;;8.47;;
50647;SDS011;36617;52.002;6.034;2022-12-20T05:08:01;13.17;;;8.07;;
50647;SDS011;36617;52.002;6.034;2022-12-20T05:10:27;12.37;;;7.63;;
50647;SDS011;36617;52.002;6.034;2022-12-20T05:12:52;12.47;;;7.63;;
50647;SDS011;36617;52.002;6.034;2022-12-20T05:15:17;11.93;;;7.50;;
50647;SDS011;36617;52.002;6.034;2022-12-20T05:17:42;13.17;;;7.60;;
50647;SDS011;36617;52.002;6.034;2022-12-20T05:20:07;12.73;;;7.53;;
50647;SDS011;36617;52.002;6.034;2022-12-20T05:22:35;12.23;;;7.17;;
50647;SDS011;36617;52.002;6.034;2022-12-20T05:25:19;11.67;;;7.20;;
50647;SDS011;36617;52.002;6.034;2022-12-20T05:28:03;11.73;;;7.35;;
50647;SDS011;36617;52.002;6.034;2022-12-20T05:30:28;11.57;;;7.13;;
50647;SDS011;36617;52.002;6.034;2022-12-20T05:32:53;11.83;;;7.10;;
50647;SDS011;36617;52.002;6.034;2022-12-20T05:35:19;11.00;;;6.80;;
50647;SDS011;36617;52.002;6.034;2022-12-20T05:37:44;11.27;;;7.30;;
50647;SDS011;36617;52.002;6.034;2022-12-20T05:40:09;11.17;;;6.80;;
50647;SDS011;36617;52.002;6.034;2022-12-20T05:42:35;11.00;;;6.87;;
50647;SDS011;36617;52.002;6.034;2022-12-20T05:45:00;10.50;;;6.27;;
50647;SDS011;36617;52.002;6.034;2022-12-20T05:47:25;10.63;;;6.50;;
50647;SDS011;36617;52.002;6.034;2022-12-20T05:49:50;10.45;;;6.22;;
50647;SDS011;36617;52.002;6.034;2022-12-20T05:52:16;10.30;;;5.70;;
50647;SDS011;36617;52.002;6.034;2022-12-20T05:54:41;9.70;;;5.83;;
50647;SDS011;36617;52.002;6.034;2022-12-20T05:57:06;10.00;;;5.57;;
50647;SDS011;36617;52.002;6.034;2022-12-20T05:59:31;9.50;;;5.43;;
50647;SDS011;36617;52.002;6.034;2022-12-20T06:01:56;9.50;;;5.60;;
50647;SDS011;36617;52.002;6.034;2022-12-20T06:04:22;9.27;;;5.13;;
50647;SDS011;36617;52.002;6.034;2022-12-20T06:06:47;8.50;;;5.17;;
50647;SDS011;36617;52.002;6.034;2022-12-20T06:09:12;9.60;;;5.53;;
50647;SDS011;36617;52.002;6.034;2022-12-20T06:11:37;9.10;;;5.13;;
50647;SDS011;36617;52.002;6.034;2022-12-20T06:14:03;9.47;;;5.10;;
50647;SDS011;36617;52.002;6.034;2022-12-20T06:16:28;10.60;;;5.47;;
50647;SDS011;36617;52.002;6.034;2022-12-20T06:18:53;8.33;;;4.87;;
50647;SDS011;36617;52.002;6.034;2022-12-20T06:21:18;9.67;;;4.80;;
50647;SDS011;36617;52.002;6.034;2022-12-20T06:23:44;8.33;;;4.60;;
50647;SDS011;36617;52.002;6.034;2022-12-20T06:26:09;8.23;;;4.50;;
50647;SDS011;36617;52.002;6.034;2022-12-20T06:28:34;7.87;;;4.37;;
50647;SDS011;36617;52.002;6.034;2022-12-20T06:31:06;8.33;;;4.80;;
50647;SDS011;36617;52.002;6.034;2022-12-20T06:33:31;8.20;;;4.63;;
50647;SDS011;36617;52.002;6.034;2022-12-20T06:35:57;8.00;;;4.33;;
50647;SDS011;36617;52.002;6.034;2022-12-20T06:38:22;7.50;;;4.20;;
50647;SDS011;36617;52.002;6.034;2022-12-20T06:40:47;7.43;;;4.23;;
50647;SDS011;36617;52.002;6.034;2022-12-20T06:43:12;7.63;;;3.93;;
50647;SDS011;36617;52.002;6.034;2022-12-20T06:45:37;7.00;;;4.00;;
50647;SDS011;36617;52.002;6.034;2022-12-20T06:48:03;6.93;;;3.90;;
50647;SDS011;36617;52.002;6.034;2022-12-20T06:50:28;7.53;;;4.13;;
50647;SDS011;36617;52.002;6.034;2022-12-20T06:52:53;7.13;;;4.00;;
50647;SDS011;36617;52.002;6.034;2022-12-20T06:55:19;7.53;;;4.17;;
50647;SDS011;36617;52.002;6.034;2022-12-20T06:57:44;7.47;;;4.00;;
50647;SDS011;36617;52.002;6.034;2022-12-20T07:00:11;6.65;;;3.53;;
50647;SDS011;36617;52.002;6.034;2022-12-20T07:02:37;6.47;;;3.43;;
50647;SDS011;36617;52.002;6.034;2022-12-20T07:05:02;7.32;;;3.80;;
50647;SDS011;36617;52.002;6.034;2022-12-20T07:07:28;7.35;;;3.95;;
50647;SDS011;36617;52.002;6.034;2022-12-20T07:09:53;7.53;;;3.80;;
50647;SDS011;36617;52.002;6.034;2022-12-20T07:12:18;6.57;;;3.40;;
50647;SDS011;36617;52.002;6.034;2022-12-20T07:14:43;6.35;;;3.22;;
50647;SDS011;36617;52.002;6.034;2022-12-20T07:17:09;6.63;;;3.30;;
50647;SDS011;36617;52.002;6.034;2022-12-20T07:19:34;6.10;;;3.27;;
50647;SDS011;36617;52.002;6.034;2022-12-20T07:22:03;7.13;;;3.45;;
50647;SDS011;36617;52.002;6.034;2022-12-20T07:24:28;6.10;;;3.10;;
50647;SDS011;36617;52.002;6.034;2022-12-20T07:26:54;6.40;;;3.20;;
50647;SDS011;36617;52.002;6.034;2022-12-20T07:29:19;6.20;;;2.97;;
50647;SDS011;36617;52.002;6.034;2022-12-20T07:31:44;6.03;;;2.90;;
50647;SDS011;36617;52.002;6.034;2022-12-20T07:34:09;5.60;;;2.87;;
50647;SDS011;36617;52.002;6.034;2022-12-20T07:36:34;5.50;;;2.80;;
50647;SDS011;36617;52.002;6.034;2022-12-20T07:39:00;5.27;;;2.70;;
50647;SDS011;36617;52.002;6.034;2022-12-20T07:41:25;5.40;;;2.60;;
50647;SDS011;36617;52.002;6.034;2022-12-20T07:43:50;5.07;;;2.57;;
50647;SDS011;36617;52.002;6.034;2022-12-20T07:46:16;5.83;;;2.70;;
50647;SDS011;36617;52.002;6.034;2022-12-20T07:48:41;5.07;;;2.50;;
50647;SDS011;36617;52.002;6.034;2022-12-20T07:51:11;5.53;;;2.47;;
50647;SDS011;36617;52.002;6.034;2022-12-20T07:53:38;5.00;;;2.60;;
50647;SDS011;36617;52.002;6.034;2022-12-20T07:56:04;4.63;;;2.40;;
50647;SDS011;36617;52.002;6.034;2022-12-20T07:58:30;4.83;;;2.43;;
50647;SDS011;36617;52.002;6.034;2022-12-20T08:00:56;4.88;;;2.13;;
50647;SDS011;36617;52.002;6.034;2022-12-20T08:03:22;5.40;;;2.40;;
50647;SDS011;36617;52.002;6.034;2022-12-20T08:05:50;4.50;;;2.20;;
50647;SDS011;36617;52.002;6.034;2022-12-20T08:08:17;4.50;;;2.20;;
50647;SDS011;36617;52.002;6.034;2022-12-20T08:10:42;5.20;;;2.35;;
50647;SDS011;36617;52.002;6.034;2022-12-20T08:13:07;4.33;;;2.00;;
50647;SDS011;36617;52.002;6.034;2022-12-20T08:15:33;5.20;;;2.27;;
50647;SDS011;36617;52.002;6.034;2022-12-20T08:17:59;4.25;;;2.00;;
50647;SDS011;36617;52.002;6.034;2022-12-20T08:20:24;4.13;;;2.20;;
50647;SDS011;36617;52.002;6.034;2022-12-20T08:22:50;4.30;;;2.00;;
50647;SDS011;36617;52.002;6.034;2022-12-20T08:25:15;3.70;;;1.87;;
50647;SDS011;36617;52.002;6.034;2022-12-20T08:27:41;4.40;;;2.10;;
50647;SDS011;36617;52.002;6.034;2022-12-20T08:30:06;4.83;;;2.10;;
50647;SDS011;36617;52.002;6.034;2022-12-20T08:32:33;4.45;;;1.98;;
50647;SDS011;36617;52.002;6.034;2022-12-20T08:34:58;3.60;;;1.70;;
50647;SDS011;36617;52.002;6.034;2022-12-20T08:37:23;3.87;;;1.90;;
50647;SDS011;36617;52.002;6.034;2022-12-20T08:39:48;4.10;;;1.80;;
50647;SDS011;36617;52.002;6.034;2022-12-20T08:42:14;4.07;;;1.80;;
50647;SDS011;36617;52.002;6.034;2022-12-20T08:44:39;3.83;;;1.80;;
50647;SDS011;36617;52.002;6.034;2022-12-20T08:47:04;3.57;;;1.70;;
50647;SDS011;36617;52.002;6.034;2022-12-20T08:49:29;3.63;;;1.70;;
50647;SDS011;36617;52.002;6.034;2022-12-20T08:51:54;3.97;;;1.80;;
50647;SDS011;36617;52.002;6.034;2022-12-20T08:54:20;3.53;;;1.60;;
50647;SDS011;36617;52.002;6.034;2022-12-20T08:56:45;3.57;;;1.70;;
50647;SDS011;36617;52.002;6.034;2022-12-20T08:59:10;3.17;;;1.63;;
50647;SDS011;36617;52.002;6.034;2022-12-20T09:01:35;3.67;;;1.53;;
50647;SDS011;36617;52.002;6.034;2022-12-20T09:04:01;3.30;;;1.60;;
50647;SDS011;36617;52.002;6.034;2022-12-20T09:06:26;3.27;;;1.50;;
50647;SDS011;36617;52.002;6.034;2022-12-20T09:08:51;3.33;;;1.50;;
50647;SDS011;36617;52.002;6.034;2022-12-20T09:11:21;2.93;;;1.50;;
50647;SDS011;36617;52.002;6.034;2022-12-20T09:13:47;2.95;;;1.33;;
50647;SDS011;36617;52.002;6.034;2022-12-20T09:16:14;2.90;;;1.50;;
50647;SDS011;36617;52.002;6.034;2022-12-20T09:18:40;3.40;;;1.53;;
50647;SDS011;36617;52.002;6.034;2022-12-20T09:21:06;2.80;;;1.37;;
50647;SDS011;36617;52.002;6.034;2022-12-20T09:23:31;3.27;;;1.30;;
50647;SDS011;36617;52.002;6.034;2022-12-20T09:26:04;2.50;;;1.33;;
50647;SDS011;36617;52.002;6.034;2022-12-20T09:28:30;3.00;;;1.30;;
50647;SDS011;36617;52.002;6.034;2022-12-20T09:30:58;4.00;;;1.40;;
50647;SDS011;36617;52.002;6.034;2022-12-20T09:33:24;2.83;;;1.20;;
50647;SDS011;36617;52.002;6.034;2022-12-20T09:35:49;3.23;;;1.50;;
50647;SDS011;36617;52.002;6.034;2022-12-20T09:38:14;2.83;;;1.17;;
50647;SDS011;36617;52.002;6.034;2022-12-20T09:40:43;2.50;;;1.10;;
50647;SDS011;36617;52.002;6.034;2022-12-20T09:43:09;3.60;;;1.30;;
50647;SDS011;36617;52.002;6.034;2022-12-20T09:45:35;2.90;;;1.13;;
50647;SDS011;36617;52.002;6.034;2022-12-20T09:48:01;2.60;;;1.20;;
50647;SDS011;36617;52.002;6.034;2022-12-20T09:53:18;3.58;;;1.30;;
50647;SDS011;36617;52.002;6.034;2022-12-20T09:55:49;3.50;;;1.30;;
50647;SDS011;36617;52.002;6.034;2022-12-20T10:00:50;4.23;;;1.20;;
50647;SDS011;36617;52.002;6.034;2022-12-20T10:03:26;3.23;;;1.20;;
50647;SDS011;36617;52.002;6.034;2022-12-20T10:05:54;4.68;;;1.20;;
50647;SDS011;36617;52.002;6.034;2022-12-20T10:08:26;3.90;;;1.20;;
50647;SDS011;36617;52.002;6.034;2022-12-20T10:10:58;2.85;;;1.10;;
50647;SDS011;36617;52.002;6.034;2022-12-20T10:16:28;2.10;;;1.00;;
50647;SDS011;36617;52.002;6.034;2022-12-20T10:21:29;2.73;;;1.10;;
50647;SDS011;36617;52.002;6.034;2022-12-20T10:24:01;3.17;;;1.20;;
50647;SDS011;36617;52.002;6.034;2022-12-20T10:26:27;2.58;;;1.10;;
50647;SDS011;36617;52.002;6.034;2022-12-20T10:28:53;2.50;;;1.25;;
50647;SDS011;36617;52.002;6.034;2022-12-20T10:31:18;2.17;;;1.00;;
50647;SDS011;36617;52.002;6.034;2022-12-20T10:33:44;3.65;;;1.20;;
50647;SDS011;36617;52.002;6.034;2022-12-20T10:36:16;2.58;;;1.15;;
50647;SDS011;36617;52.002;6.034;2022-12-20T10:38:42;2.22;;;1.00;;
50647;SDS011;36617;52.002;6.034;2022-12-20T10:41:10;2.92;;;1.10;;
50647;SDS011;36617;52.002;6.034;2022-12-20T10:43:39;2.07;;;1.00;;
50647;SDS011;36617;52.002;6.034;2022-12-20T10:46:06;2.28;;;1.00;;
50647;SDS011;36617;52.002;6.034;2022-12-20T10:48:33;2.47;;;1.10;;
50647;SDS011;36617;52.002;6.034;2022-12-20T10:53:27;2.10;;;0.95;;
50647;SDS011;36617;52.002;6.034;2022-12-20T10:55:53;2.67;;;1.05;;
50647;SDS011;36617;52.002;6.034;2022-12-20T10:58:33;2.38;;;1.08;;
50647;SDS011;36617;52.002;6.034;2022-12-20T11:01:34;2.00;;;0.90;;
50647;SDS011;36617;52.002;6.034;2022-12-20T11:03:52;3.88;;;1.00;;
50647;SDS011;36617;52.002;6.034;2022-12-20T11:06:18;2.63;;;1.10;;
50647;SDS011;36617;52.002;6.034;2022-12-20T11:08:43;2.45;;;0.90;;
50647;SDS011;36617;52.002;6.034;2022-12-20T11:11:10;1.77;;;1.10;;
50647;SDS011;36617;52.002;6.034;2022-12-20T11:13:36;2.37;;;0.90;;
50647;SDS011;36617;52.002;6.034;2022-12-20T11:16:02;2.50;;;1.00;;
50647;SDS011;36617;52.002;6.034;2022-12-20T11:20:59;2.17;;;0.93;;
50647;SDS011;36617;52.002;6.034;2022-12-20T11:23:36;2.93;;;1.03;;
50647;SDS011;36617;52.002;6.034;2022-12-20T11:31:15;2.25;;;0.93;;
50647;SDS011;36617;52.002;6.034;2022-12-20T11:38:58;2.23;;;1.00;;
50647;SDS011;36617;52.002;6.034;2022-12-20T11:52:25;2.00;;;1.00;;
50647;SDS011;36617;52.002;6.034;2022-12-20T11:54:46;2.22;;;0.98;;
50647;SDS011;36617;52.002;6.034;2022-12-20T11:57:13;2.42;;;1.08;;
50647;SDS011;36617;52.002;6.034;2022-12-20T11:59:51;1.48;;;0.75;;
50647;SDS011;36617;52.002;6.034;2022-12-20T12:02:27;1.50;;;0.85;;
50647;SDS011;36617;52.002;6.034;2022-12-20T12:04:57;1.55;;;0.80;;
50647;SDS011;36617;52.002;6.034;2022-12-20T12:07:42;2.67;;;0.88;;
50647;SDS011;36617;52.002;6.034;2022-12-20T12:10:16;2.50;;;1.00;;
50647;SDS011;36617;52.002;6.034;2022-12-20T12:12:47;1.88;;;0.80;;
50647;SDS011;36617;52.002;6.034;2022-12-20T12:18:09;1.73;;;0.93;;
50647;SDS011;36617;52.002;6.034;2022-12-20T12:25:47;2.28;;;0.90;;
50647;SDS011;36617;52.002;6.034;2022-12-20T12:28:13;1.67;;;0.80;;
50647;SDS011;36617;52.002;6.034;2022-12-20T12:30:40;2.22;;;1.00;;
50647;SDS011;36617;52.002;6.034;2022-12-20T12:33:13;1.38;;;0.65;;
50647;SDS011;36617;52.002;6.034;2022-12-20T12:41:29;1.98;;;0.90;;
50647;SDS011;36617;52.002;6.034;2022-12-20T12:44:44;2.30;;;0.90;;
50647;SDS011;36617;52.002;6.034;2022-12-20T12:46:44;2.22;;;0.90;;
50647;SDS011;36617;52.002;6.034;2022-12-20T12:49:13;1.80;;;0.90;;
50647;SDS011;36617;52.002;6.034;2022-12-20T12:51:41;1.80;;;0.80;;
50647;SDS011;36617;52.002;6.034;2022-12-20T12:56:40;1.73;;;0.93;;
50647;SDS011;36617;52.002;6.034;2022-12-20T13:11:29;2.07;;;0.80;;
50647;SDS011;36617;52.002;6.034;2022-12-20T13:16:35;2.15;;;0.73;;
50647;SDS011;36617;52.002;6.034;2022-12-20T13:19:08;1.17;;;0.70;;
50647;SDS011;36617;52.002;6.034;2022-12-20T13:21:35;1.17;;;0.70;;
50647;SDS011;36617;52.002;6.034;2022-12-20T13:24:27;1.33;;;0.80;;
50647;SDS011;36617;52.002;6.034;2022-12-20T13:26:55;1.55;;;0.80;;
50647;SDS011;36617;52.002;6.034;2022-12-20T13:29:24;1.25;;;0.70;;
50647;SDS011;36617;52.002;6.034;2022-12-20T13:31:50;1.80;;;0.70;;
50647;SDS011;36617;52.002;6.034;2022-12-20T13:34:35;1.60;;;0.80;;
50647;SDS011;36617;52.002;6.034;2022-12-20T13:37:00;1.63;;;0.70;;
50647;SDS011;36617;52.002;6.034;2022-12-20T13:41:52;2.27;;;0.90;;
50647;SDS011;36617;52.002;6.034;2022-12-20T13:47:28;2.07;;;0.90;;
50647;SDS011;36617;52.002;6.034;2022-12-20T13:49:46;1.42;;;0.70;;
50647;SDS011;36617;52.002;6.034;2022-12-20T13:52:30;1.40;;;0.70;;
50647;SDS011;36617;52.002;6.034;2022-12-20T13:54:57;1.30;;;0.70;;
50647;SDS011;36617;52.002;6.034;2022-12-20T13:57:27;2.03;;;0.90;;
50647;SDS011;36617;52.002;6.034;2022-12-20T13:59:54;2.17;;;0.90;;
50647;SDS011;36617;52.002;6.034;2022-12-20T14:02:21;1.88;;;0.80;;
50647;SDS011;36617;52.002;6.034;2022-12-20T14:05:35;2.20;;;0.80;;
50647;SDS011;36617;52.002;6.034;2022-12-20T14:07:34;1.25;;;0.80;;
50647;SDS011;36617;52.002;6.034;2022-12-20T14:10:02;1.63;;;0.80;;
50647;SDS011;36617;52.002;6.034;2022-12-20T14:12:28;3.20;;;0.80;;
50647;SDS011;36617;52.002;6.034;2022-12-20T14:14:53;1.50;;;0.85;;
50647;SDS011;36617;52.002;6.034;2022-12-20T14:17:25;2.90;;;0.90;;
50647;SDS011;36617;52.002;6.034;2022-12-20T14:22:51;3.30;;;0.90;;
50647;SDS011;36617;52.002;6.034;2022-12-20T14:25:19;4.20;;;0.80;;
50647;SDS011;36617;52.002;6.034;2022-12-20T14:27:46;2.97;;;0.80;;
50647;SDS011;36617;52.002;6.034;2022-12-20T14:32:56;3.10;;;0.82;;
50647;SDS011;36617;52.002;6.034;2022-12-20T14:35:21;2.70;;;1.00;;
50647;SDS011;36617;52.002;6.034;2022-12-20T14:37:58;2.50;;;0.70;;
50647;SDS011;36617;52.002;6.034;2022-12-20T14:40:24;1.63;;;0.90;;
50647;SDS011;36617;52.002;6.034;2022-12-20T14:42:50;1.90;;;1.00;;
50647;SDS011;36617;52.002;6.034;2022-12-20T14:45:17;2.80;;;0.90;;
50647;SDS011;36617;52.002;6.034;2022-12-20T14:47:59;2.05;;;0.80;;
50647;SDS011;36617;52.002;6.034;2022-12-20T14:50:35;2.58;;;0.85;;
50647;SDS011;36617;52.002;6.034;2022-12-20T14:53:01;1.92;;;0.90;;
50647;SDS011;36617;52.002;6.034;2022-12-20T14:55:31;1.40;;;0.80;;
50647;SDS011;36617;52.002;6.034;2022-12-20T14:57:57;2.22;;;0.90;;
50647;SDS011;36617;52.002;6.034;2022-12-20T15:00:26;1.85;;;0.88;;
50647;SDS011;36617;52.002;6.034;2022-12-20T15:13:16;1.63;;;0.70;;
50647;SDS011;36617;52.002;6.034;2022-12-20T15:15:41;2.30;;;0.90;;
50647;SDS011;36617;52.002;6.034;2022-12-20T15:18:09;1.83;;;0.90;;
50647;SDS011;36617;52.002;6.034;2022-12-20T15:20:35;1.67;;;0.80;;
50647;SDS011;36617;52.002;6.034;2022-12-20T15:23:00;2.67;;;0.80;;
50647;SDS011;36617;52.002;6.034;2022-12-20T15:25:25;2.70;;;0.90;;
50647;SDS011;36617;52.002;6.034;2022-12-20T15:27:51;2.33;;;0.80;;
50647;SDS011;36617;52.002;6.034;2022-12-20T15:30:16;2.67;;;0.80;;
50647;SDS011;36617;52.002;6.034;2022-12-20T15:32:42;2.70;;;0.80;;
50647;SDS011;36617;52.002;6.034;2022-12-20T15:35:13;1.43;;;0.80;;
50647;SDS011;36617;52.002;6.034;2022-12-20T15:37:39;1.58;;;0.75;;
50647;SDS011;36617;52.002;6.034;2022-12-20T15:40:04;1.93;;;1.00;;
50647;SDS011;36617;52.002;6.034;2022-12-20T15:42:30;2.40;;;0.80;;
50647;SDS011;36617;52.002;6.034;2022-12-20T15:44:55;1.60;;;0.80;;
50647;SDS011;36617;52.002;6.034;2022-12-20T15:47:21;2.22;;;0.70;;
50647;SDS011;36617;52.002;6.034;2022-12-20T15:49:46;2.30;;;0.80;;
50647;SDS011;36617;52.002;6.034;2022-12-20T15:52:15;1.73;;;0.77;;
50647;SDS011;36617;52.002;6.034;2022-12-20T15:54:42;4.70;;;0.90;;
50647;SDS011;36617;52.002;6.034;2022-12-20T15:57:08;1.50;;;0.70;;
50647;SDS011;36617;52.002;6.034;2022-12-20T15:59:35;1.70;;;0.70;;
50647;SDS011;36617;52.002;6.034;2022-12-20T16:02:00;2.20;;;0.93;;
50647;SDS011;36617;52.002;6.034;2022-12-20T16:04:26;1.10;;;0.70;;
50647;SDS011;36617;52.002;6.034;2022-12-20T16:06:52;1.97;;;0.80;;
50647;SDS011;36617;52.002;6.034;2022-12-20T16:09:18;2.07;;;0.80;;
50647;SDS011;36617;52.002;6.034;2022-12-20T16:11:44;2.25;;;0.90;;
50647;SDS011;36617;52.002;6.034;2022-12-20T16:14:15;1.80;;;0.80;;
50647;SDS011;36617;52.002;6.034;2022-12-20T16:16:41;1.73;;;0.75;;
50647;SDS011;36617;52.002;6.034;2022-12-20T16:19:06;1.33;;;0.73;;